Time;durP1;ratioP1;P1;durP2;ratioP2;P2;SDS_P1;SDS_P2;PMS_P1;PMS_P2;Temp;Humidity;BMP_temperature;BMP_pressure;BME280_temperature;BME280_humidity;BME280_pressure;Samples;Min_cycle;Max_cycle;Signal;HPM_P1;HPM_P2
2023/01/29 00:00:37;;;;;;;23.03;11.43;;;0.00;99.90;;;;;;4229003;28;20685;-70
2023/01/29 00:02:38;;;;;;;22.73;11.13;;;0.00;99.90;;;;;;4227843;28;20650;-62
2023/01/29 00:04:39;;;;;;;23.97;12.23;;;0.00;99.90;;;;;;4227865;28;21256;-63
2023/01/29 00:06:41;;;;;;;22.53;11.87;;;0.10;99.90;;;;;;4227020;28;20256;-63
2023/01/29 00:08:42;;;;;;;26.87;13.23;;;0.10;99.90;;;;;;4228196;28;20260;-61
2023/01/29 00:10:43;;;;;;;27.60;12.97;;;0.10;99.90;;;;;;4228433;28;20309;-62
2023/01/29 00:12:44;;;;;;;27.20;12.87;;;0.10;99.90;;;;;;4226805;28;20702;-68
2023/01/29 00:14:45;;;;;;;21.07;12.00;;;0.10;99.90;;;;;;4228387;28;20780;-64
2023/01/29 00:16:46;;;;;;;20.77;11.33;;;0.20;99.90;;;;;;4227711;28;20728;-66
2023/01/29 00:18:47;;;;;;;22.63;12.00;;;0.20;99.90;;;;;;4228305;28;20276;-62
2023/01/29 00:20:49;;;;;;;22.20;10.77;;;0.20;99.90;;;;;;4226894;28;20264;-61
2023/01/29 00:22:50;;;;;;;22.27;11.47;;;0.20;99.90;;;;;;4228844;28;20264;-61
2023/01/29 00:24:51;;;;;;;22.63;11.17;;;0.20;99.90;;;;;;4227541;28;20613;-62
2023/01/29 00:26:52;;;;;;;19.80;10.30;;;0.20;99.90;;;;;;4227991;28;20268;-62
2023/01/29 00:28:55;;;;;;;22.10;10.87;;;0.20;99.90;;;;;;4226795;28;20915;-66
2023/01/29 00:30:56;;;;;;;20.53;11.07;;;0.20;99.90;;;;;;4210120;28;20281;-61
2023/01/29 00:32:58;;;;;;;25.80;12.67;;;0.20;99.90;;;;;;4227522;28;20260;-61
2023/01/29 00:34:59;;;;;;;19.87;11.03;;;0.30;99.90;;;;;;4228141;28;20318;-61
2023/01/29 00:37:03;;;;;;;20.13;9.80;;;0.20;99.90;;;;;;4227667;28;20252;-61
2023/01/29 00:39:09;;;;;;;21.83;10.20;;;0.20;99.90;;;;;;4227188;28;20264;-61
2023/01/29 00:45:52;;;;;;;21.13;11.17;;;0.30;99.90;;;;;;4227373;28;20333;-60
2023/01/29 00:47:53;;;;;;;21.80;11.00;;;0.30;99.90;;;;;;4228127;28;20739;-61
2023/01/29 00:49:55;;;;;;;28.77;13.17;;;0.30;99.90;;;;;;4227578;28;20297;-61
2023/01/29 00:54:16;;;;;;;28.27;13.93;;;0.30;99.90;;;;;;4227493;28;20268;-61
2023/01/29 00:56:17;;;;;;;23.23;12.07;;;0.40;99.90;;;;;;4227401;28;20272;-72
2023/01/29 00:58:27;;;;;;;26.40;12.23;;;0.30;99.90;;;;;;4227677;28;20300;-65
2023/01/29 01:00:28;;;;;;;25.92;12.55;;;0.40;99.90;;;;;;4227482;28;20268;-59
2023/01/29 01:04:49;;;;;;;28.07;13.17;;;0.40;99.90;;;;;;4227314;28;20296;-67
2023/01/29 01:06:50;;;;;;;25.63;12.13;;;0.40;99.90;;;;;;4227835;28;20256;-61
2023/01/29 01:11:10;;;;;;;27.53;13.00;;;0.50;99.90;;;;;;4227644;28;20292;-68
2023/01/29 01:13:11;;;;;;;26.23;13.40;;;0.50;99.90;;;;;;4226360;28;20325;-62
2023/01/29 01:15:13;;;;;;;29.00;13.20;;;0.50;99.90;;;;;;4228432;28;20815;-61
2023/01/29 01:17:14;;;;;;;22.53;12.33;;;0.50;99.90;;;;;;4227158;28;20256;-61
2023/01/29 01:19:16;;;;;;;25.20;13.07;;;0.50;99.90;;;;;;4228022;28;20260;-61
2023/01/29 01:21:17;;;;;;;24.27;12.37;;;0.60;99.90;;;;;;4226447;28;20268;-61
2023/01/29 01:23:19;;;;;;;28.03;13.17;;;0.60;99.90;;;;;;4227355;28;20329;-62
2023/01/29 01:25:21;;;;;;;29.10;12.87;;;0.60;99.90;;;;;;4227220;28;20340;-62
2023/01/29 01:27:22;;;;;;;25.03;13.10;;;0.60;99.90;;;;;;4210104;28;20269;-62
2023/01/29 01:29:23;;;;;;;24.73;12.77;;;0.60;99.90;;;;;;4226425;28;20284;-62
2023/01/29 01:31:25;;;;;;;43.90;16.00;;;0.50;99.90;;;;;;4228084;28;20272;-62
2023/01/29 01:33:26;;;;;;;50.40;16.87;;;0.60;99.90;;;;;;4226941;28;20281;-61
2023/01/29 01:35:27;;;;;;;53.80;18.53;;;0.50;99.90;;;;;;4227650;28;20264;-63
2023/01/29 01:37:28;;;;;;;50.03;18.20;;;0.50;99.90;;;;;;4227366;28;20268;-61
2023/01/29 01:39:29;;;;;;;40.73;16.80;;;0.50;99.90;;;;;;4208846;28;20315;-62
2023/01/29 01:41:31;;;;;;;31.63;15.33;;;0.50;99.90;;;;;;4227530;28;20325;-63
2023/01/29 01:43:57;;;;;;;30.27;15.37;;;0.50;99.90;;;;;;4227025;28;20268;-62
2023/01/29 01:45:58;;;;;;;34.70;16.93;;;0.50;99.90;;;;;;4227594;28;20670;-62
2023/01/29 01:48:04;;;;;;;41.10;17.37;;;0.50;99.90;;;;;;4226988;28;20353;-63
2023/01/29 01:50:11;;;;;;;47.53;19.00;;;0.50;99.90;;;;;;4227457;28;20248;-62
2023/01/29 01:52:15;;;;;;;35.67;16.70;;;0.50;99.90;;;;;;4226934;28;20256;-61
2023/01/29 01:54:26;;;;;;;66.43;20.60;;;0.40;99.90;;;;;;4227644;28;20632;-62
2023/01/29 01:56:37;;;;;;;51.42;17.50;;;0.40;99.90;;;;;;4226836;28;20757;-65
2023/01/29 01:58:44;;;;;;;58.07;21.70;;;0.30;99.90;;;;;;4227553;28;20028;-62
2023/01/29 02:00:45;;;;;;;46.93;19.30;;;0.20;99.90;;;;;;4226726;28;21036;-61
2023/01/29 02:09:55;;;;;;;48.70;21.20;;;0.10;99.90;;;;;;4229845;28;20879;-62
2023/01/29 02:11:56;;;;;;;81.87;23.80;;;0.10;99.90;;;;;;4229432;28;20295;-62
2023/01/29 02:13:58;;;;;;;52.87;20.80;;;0.10;99.90;;;;;;4212221;28;20276;-66
2023/01/29 02:15:59;;;;;;;46.27;19.63;;;0.10;99.90;;;;;;4230699;28;20264;-61
2023/01/29 02:18:00;;;;;;;47.17;19.07;;;0.10;99.90;;;;;;4229689;28;20796;-62
2023/01/29 02:20:01;;;;;;;46.33;20.23;;;0.00;99.90;;;;;;4229813;28;20313;-62
2023/01/29 02:22:30;;;;;;;43.83;18.80;;;0.00;99.90;;;;;;4229406;28;20260;-66
2023/01/29 02:24:34;;;;;;;53.37;20.07;;;0.10;99.90;;;;;;4230332;28;20292;-67
2023/01/29 02:27:03;;;;;;;40.80;17.80;;;0.10;99.90;;;;;;4229401;28;20293;-67
2023/01/29 02:29:33;;;;;;;44.10;17.13;;;0.00;99.90;;;;;;4230105;28;20321;-63
2023/01/29 02:31:43;;;;;;;42.93;16.33;;;0.10;99.90;;;;;;4229499;28;20846;-65
2023/01/29 02:33:52;;;;;;;36.38;16.75;;;0.10;99.90;;;;;;4229607;28;20336;-65
2023/01/29 02:36:27;;;;;;;37.40;16.27;;;0.10;99.90;;;;;;4229220;28;20479;-66
2023/01/29 02:38:57;;;;;;;33.40;14.80;;;0.10;99.90;;;;;;4229284;28;20256;-67
2023/01/29 02:41:13;;;;;;;33.85;14.93;;;0.10;99.90;;;;;;4230491;28;20796;-63
2023/01/29 02:43:29;;;;;;;36.83;15.07;;;0.10;99.90;;;;;;4229337;28;20035;-63
2023/01/29 02:45:45;;;;;;;33.60;15.23;;;0.10;99.90;;;;;;4229792;28;20288;-68
2023/01/29 02:47:59;;;;;;;36.97;15.37;;;0.10;99.90;;;;;;4228896;28;21000;-64
2023/01/29 02:50:14;;;;;;;31.23;14.20;;;0.10;99.90;;;;;;4229887;28;20280;-62
2023/01/29 02:52:15;;;;;;;40.80;16.13;;;0.10;99.90;;;;;;4229006;28;20317;-66
2023/01/29 02:54:20;;;;;;;38.33;15.80;;;0.10;99.90;;;;;;4230060;28;20264;-63
2023/01/29 02:56:31;;;;;;;34.20;14.70;;;0.10;99.90;;;;;;4228108;28;20276;-62
2023/01/29 02:58:35;;;;;;;;;;;0.10;99.90;;;;;;4230585;28;20313;-72
2023/01/29 03:00:42;;;;;;;31.00;15.13;;;0.10;99.90;;;;;;4228844;28;19904;-71
2023/01/29 03:02:45;;;;;;;28.83;13.50;;;0.10;99.90;;;;;;4230078;28;20319;-70
2023/01/29 03:04:59;;;;;;;29.53;13.70;;;0.10;99.90;;;;;;4228593;28;20334;-63
2023/01/29 03:07:06;;;;;;;27.03;12.63;;;0.10;99.90;;;;;;4229891;28;20345;-71
2023/01/29 03:09:13;;;;;;;26.43;12.67;;;0.10;99.90;;;;;;4228746;28;20321;-71
2023/01/29 03:11:16;;;;;;;29.87;13.03;;;0.10;99.90;;;;;;4211283;28;20288;-71
2023/01/29 03:13:31;;;;;;;28.53;12.70;;;0.00;99.90;;;;;;4228670;28;20263;-64
2023/01/29 03:15:46;;;;;;;25.50;12.53;;;0.00;99.90;;;;;;4229553;28;20662;-72
2023/01/29 03:18:11;;;;;;;25.13;13.17;;;0.00;99.90;;;;;;4228587;28;20268;-64
2023/01/29 03:20:18;;;;;;;32.33;13.10;;;0.00;99.90;;;;;;4229015;28;20284;-65
2023/01/29 03:22:22;;;;;;;29.57;13.90;;;0.00;99.90;;;;;;4228504;28;20279;-62
2023/01/29 03:32:07;;;;;;;30.77;14.10;;;0.00;99.90;;;;;;4229061;28;20309;-71
2023/01/29 03:34:15;;;;;;;27.25;12.95;;;0.00;99.90;;;;;;4228698;28;20072;-69
2023/01/29 03:36:25;;;;;;;32.40;13.87;;;0.00;99.90;;;;;;4228903;28;20076;-72
2023/01/29 03:38:28;;;;;;;31.05;14.30;;;0.00;99.90;;;;;;4228742;28;20248;-63
2023/01/29 03:40:47;;;;;;;32.27;14.10;;;0.00;99.90;;;;;;4227944;28;20492;-62
2023/01/29 03:43:13;;;;;;;33.17;14.57;;;-0.10;99.90;;;;;;4228768;28;20651;-62
2023/01/29 03:45:22;;;;;;;27.60;13.80;;;-0.10;99.90;;;;;;4228650;28;20376;-72
2023/01/29 03:47:39;;;;;;;33.03;14.17;;;0.00;99.90;;;;;;4227506;28;20277;-67
2023/01/29 03:50:01;;;;;;;32.07;13.47;;;0.00;99.90;;;;;;4229019;28;20321;-72
2023/01/29 03:52:26;;;;;;;28.70;13.27;;;-0.10;99.90;;;;;;4227205;28;20333;-62
2023/01/29 03:54:52;;;;;;;32.80;14.87;;;0.00;99.90;;;;;;4229366;28;20268;-62
2023/01/29 03:56:59;;;;;;;36.13;14.97;;;-0.10;99.90;;;;;;4227978;28;20314;-68
2023/01/29 03:59:10;;;;;;;32.43;15.20;;;0.00;99.90;;;;;;4229129;28;20256;-67
2023/01/29 04:01:36;;;;;;;32.17;14.37;;;0.00;99.90;;;;;;4227739;28;20621;-64
2023/01/29 04:03:41;;;;;;;31.50;14.73;;;0.00;99.90;;;;;;4228906;28;20310;-62
2023/01/29 04:05:51;;;;;;;33.73;15.83;;;-0.10;99.90;;;;;;4227744;28;20404;-70
2023/01/29 04:08:04;;;;;;;31.38;14.93;;;-0.10;99.90;;;;;;4228128;28;20272;-70
2023/01/29 04:10:11;;;;;;;33.00;15.00;;;0.00;99.90;;;;;;4227783;28;20622;-67
2023/01/29 04:12:19;;;;;;;39.80;16.30;;;-0.10;99.90;;;;;;4228685;28;20844;-61
2023/01/29 04:14:20;;;;;;;71.00;19.93;;;0.00;99.90;;;;;;4227845;28;20321;-61
2023/01/29 04:16:30;;;;;;;39.87;16.63;;;0.00;99.90;;;;;;4228213;28;20725;-62
2023/01/29 04:18:32;;;;;;;45.83;17.87;;;0.00;99.90;;;;;;4227617;28;20313;-61
2023/01/29 04:20:34;;;;;;;51.93;18.63;;;0.00;99.90;;;;;;4228273;28;20329;-62
2023/01/29 04:22:38;;;;;;;39.43;15.60;;;-0.10;99.90;;;;;;4226920;28;20265;-69
2023/01/29 04:24:40;;;;;;;36.27;14.77;;;0.00;99.90;;;;;;4228547;28;20276;-65
2023/01/29 04:27:05;;;;;;;31.43;14.47;;;-0.10;99.90;;;;;;4226925;28;20353;-61
2023/01/29 04:29:27;;;;;;;36.40;15.77;;;-0.10;99.90;;;;;;4228610;28;20654;-64
2023/01/29 04:31:35;;;;;;;33.37;16.57;;;-0.10;99.90;;;;;;4208424;28;20261;-61
2023/01/29 04:33:39;;;;;;;34.17;15.50;;;-0.10;99.90;;;;;;4228280;28;20286;-61
2023/01/29 04:35:47;;;;;;;36.40;14.83;;;-0.10;99.90;;;;;;4227308;28;20260;-68
2023/01/29 04:38:22;;;;;;;35.27;15.70;;;-0.10;99.90;;;;;;4228190;28;20272;-62
2023/01/29 04:40:37;;;;;;;34.87;16.73;;;-0.10;99.90;;;;;;4227239;28;20747;-61
2023/01/29 04:43:05;;;;;;;32.80;15.30;;;-0.10;99.90;;;;;;4228430;28;20268;-63
2023/01/29 04:45:24;;;;;;;32.03;14.30;;;-0.10;99.90;;;;;;4227519;28;20340;-70
2023/01/29 04:47:39;;;;;;;34.17;16.13;;;0.00;99.90;;;;;;4209937;28;20261;-62
2023/01/29 04:50:11;;;;;;;37.10;15.97;;;-0.10;99.90;;;;;;4227446;28;20252;-71
2023/01/29 04:52:16;;;;;;;31.33;14.43;;;0.00;99.90;;;;;;4226764;28;20260;-67
2023/01/29 04:54:23;;;;;;;35.63;14.77;;;0.00;99.90;;;;;;4227931;28;20289;-61
2023/01/29 04:56:42;;;;;;;29.23;13.43;;;0.00;99.90;;;;;;4227607;28;20593;-61
2023/01/29 04:58:48;;;;;;;29.07;13.67;;;0.00;99.90;;;;;;4228167;28;20313;-65
2023/01/29 05:00:53;;;;;;;32.13;13.57;;;0.00;99.90;;;;;;4226520;28;20280;-61
2023/01/29 05:02:55;;;;;;;29.33;13.67;;;0.00;99.90;;;;;;4227860;28;20337;-65
2023/01/29 05:04:57;;;;;;;28.13;13.67;;;-0.10;99.90;;;;;;4227424;28;20284;-71
2023/01/29 05:07:09;;;;;;;31.23;13.90;;;-0.10;99.90;;;;;;4226564;28;20276;-61
2023/01/29 05:09:13;;;;;;;29.23;13.97;;;-0.10;99.90;;;;;;4226756;28;20256;-61
2023/01/29 05:11:15;;;;;;;27.13;13.10;;;-0.20;99.90;;;;;;4227129;28;21044;-71
2023/01/29 05:13:20;;;;;;;26.63;12.10;;;-0.10;99.90;;;;;;4228023;28;21398;-61
2023/01/29 05:15:26;;;;;;;25.43;12.03;;;-0.20;99.90;;;;;;4227684;28;20280;-73
2023/01/29 05:17:28;;;;;;;28.50;12.77;;;-0.20;99.90;;;;;;4227959;28;20299;-61
2023/01/29 05:19:29;;;;;;;27.77;12.67;;;-0.30;99.90;;;;;;4226965;28;20313;-62
2023/01/29 05:21:31;;;;;;;28.93;13.70;;;-0.30;99.90;;;;;;4228054;28;20317;-71
2023/01/29 05:23:32;;;;;;;29.03;12.33;;;-0.30;99.90;;;;;;4226901;28;20256;-67
2023/01/29 05:25:34;;;;;;;28.27;12.87;;;-0.30;99.90;;;;;;4228074;28;20940;-71
2023/01/29 05:29:56;;;;;;;25.70;11.85;;;-0.40;99.90;;;;;;4228449;28;20344;-70
2023/01/29 05:31:58;;;;;;;27.83;12.13;;;-0.40;99.90;;;;;;4226055;28;20553;-64
2023/01/29 05:33:59;;;;;;;28.70;11.70;;;-0.40;99.90;;;;;;4227879;28;20256;-69
2023/01/29 05:36:00;;;;;;;26.60;13.10;;;-0.40;99.90;;;;;;4226861;28;20253;-62
2023/01/29 05:38:01;;;;;;;26.70;12.57;;;-0.40;99.90;;;;;;4228015;28;20801;-63
2023/01/29 05:40:07;;;;;;;26.57;11.97;;;-0.50;99.90;;;;;;4226091;28;20256;-71
2023/01/29 05:42:08;;;;;;;25.90;12.80;;;-0.40;99.90;;;;;;4226890;28;20674;-65
2023/01/29 05:44:10;;;;;;;26.53;12.70;;;-0.50;99.90;;;;;;4228569;28;20822;-65
2023/01/29 05:46:11;;;;;;;23.87;12.33;;;-0.40;99.90;;;;;;4231157;28;20341;-64
2023/01/29 05:48:12;;;;;;;25.07;11.67;;;-0.50;99.90;;;;;;4230350;28;20256;-62
2023/01/29 05:50:14;;;;;;;27.27;12.97;;;-0.40;99.90;;;;;;4230240;28;20309;-62
2023/01/29 05:52:15;;;;;;;25.67;11.30;;;-0.50;99.90;;;;;;4230582;28;20264;-70
2023/01/29 05:54:16;;;;;;;28.87;10.90;;;-0.50;99.90;;;;;;4229937;28;20325;-61
2023/01/29 05:56:18;;;;;;;28.00;11.67;;;-0.40;99.90;;;;;;4230927;28;20321;-61
2023/01/29 05:58:19;;;;;;;29.43;13.00;;;-0.40;99.90;;;;;;4229942;28;20332;-61
2023/01/29 06:00:20;;;;;;;25.50;11.83;;;-0.40;99.90;;;;;;4230249;28;20743;-71
2023/01/29 06:02:21;;;;;;;25.23;12.00;;;-0.40;99.90;;;;;;4229660;28;20257;-68
2023/01/29 06:04:23;;;;;;;24.43;11.87;;;-0.40;99.90;;;;;;4230575;28;20267;-61
2023/01/29 06:06:24;;;;;;;25.13;11.53;;;-0.40;99.90;;;;;;4229641;28;20267;-60
2023/01/29 06:08:25;;;;;;;25.57;11.87;;;-0.30;99.90;;;;;;4230763;28;20272;-64
2023/01/29 06:10:26;;;;;;;26.43;12.37;;;-0.30;99.90;;;;;;4229057;28;20268;-61
2023/01/29 06:12:27;;;;;;;24.27;12.17;;;-0.30;99.90;;;;;;4229742;28;20309;-60
2023/01/29 06:14:29;;;;;;;30.63;11.97;;;-0.30;99.90;;;;;;4211177;28;20310;-64
2023/01/29 06:16:30;;;;;;;22.30;10.70;;;-0.30;99.90;;;;;;4230636;28;20264;-64
2023/01/29 06:18:31;;;;;;;23.67;10.93;;;-0.30;99.90;;;;;;4229465;28;20740;-61
2023/01/29 06:20:32;;;;;;;25.90;11.03;;;-0.30;99.90;;;;;;4211126;28;20784;-69
2023/01/29 06:22:33;;;;;;;21.23;10.10;;;-0.30;99.90;;;;;;4230213;28;20260;-66
2023/01/29 06:24:35;;;;;;;29.53;11.87;;;-0.30;99.90;;;;;;4229313;28;20280;-72
2023/01/29 06:26:36;;;;;;;23.00;10.87;;;-0.30;99.90;;;;;;4230461;28;20333;-66
2023/01/29 06:28:37;;;;;;;24.93;11.80;;;-0.20;99.90;;;;;;4228231;28;20465;-67
2023/01/29 06:30:38;;;;;;;24.23;11.57;;;-0.20;99.90;;;;;;4230458;28;20345;-68
2023/01/29 06:32:39;;;;;;;26.20;10.93;;;-0.30;99.90;;;;;;4229461;28;20276;-64
2023/01/29 06:34:41;;;;;;;26.27;11.17;;;-0.20;99.90;;;;;;4230190;28;20256;-62
2023/01/29 06:36:42;;;;;;;30.07;13.13;;;-0.20;99.90;;;;;;4229077;28;20719;-63
2023/01/29 06:38:43;;;;;;;25.47;12.10;;;-0.20;99.90;;;;;;4230491;28;20256;-61
2023/01/29 06:40:44;;;;;;;26.77;11.77;;;-0.10;99.90;;;;;;4229250;28;20272;-66
2023/01/29 06:42:45;;;;;;;25.03;11.87;;;-0.10;99.90;;;;;;4230516;28;20340;-66
2023/01/29 06:44:46;;;;;;;28.00;13.73;;;-0.10;99.90;;;;;;4229282;28;20260;-64
2023/01/29 06:46:47;;;;;;;23.90;11.60;;;0.00;99.90;;;;;;4229971;28;20813;-67
2023/01/29 06:48:49;;;;;;;26.53;11.97;;;0.00;99.90;;;;;;4228647;28;20678;-62
2023/01/29 06:50:52;;;;;;;27.73;12.53;;;0.00;99.90;;;;;;4228810;28;20272;-71
2023/01/29 06:52:53;;;;;;;24.70;11.20;;;0.10;99.90;;;;;;4228834;28;20333;-63
2023/01/29 06:54:55;;;;;;;22.27;10.97;;;0.10;99.90;;;;;;4228828;28;20317;-64
2023/01/29 06:56:56;;;;;;;18.87;9.33;;;0.10;99.90;;;;;;4229668;28;20276;-71
2023/01/29 06:58:58;;;;;;;20.40;8.60;;;0.10;99.90;;;;;;4228573;28;20891;-61
2023/01/29 07:01:07;;;;;;;19.87;8.57;;;0.00;99.90;;;;;;4229700;28;20605;-67
2023/01/29 07:03:08;;;;;;;23.73;9.93;;;-0.10;99.90;;;;;;4228757;28;20260;-69
2023/01/29 07:05:09;;;;;;;23.53;9.30;;;-0.20;99.90;;;;;;4210470;28;20350;-61
2023/01/29 07:07:12;;;;;;;19.67;9.43;;;-0.20;99.90;;;;;;4210381;28;20276;-62
2023/01/29 07:09:14;;;;;;;20.20;9.53;;;-0.20;99.90;;;;;;4229214;28;20260;-63
2023/01/29 07:11:16;;;;;;;24.57;11.37;;;-0.20;99.90;;;;;;4228219;28;20261;-62
2023/01/29 07:13:17;;;;;;;22.50;9.97;;;-0.20;99.90;;;;;;4228818;28;20260;-62
2023/01/29 07:15:20;;;;;;;21.03;10.43;;;-0.20;99.90;;;;;;4228850;28;20260;-64
2023/01/29 07:17:21;;;;;;;18.90;8.90;;;-0.20;99.90;;;;;;4229414;28;20325;-66
2023/01/29 07:19:22;;;;;;;17.87;8.53;;;-0.20;99.90;;;;;;4228232;28;20248;-62
2023/01/29 07:21:24;;;;;;;24.97;11.93;;;-0.20;99.90;;;;;;4229043;28;20272;-63
2023/01/29 07:23:25;;;;;;;29.67;13.13;;;-0.10;99.90;;;;;;4228588;28;20240;-62
2023/01/29 07:25:26;;;;;;;20.87;10.73;;;0.00;99.90;;;;;;4228718;28;21070;-61
2023/01/29 07:27:27;;;;;;;20.03;10.07;;;-0.10;99.90;;;;;;4211162;28;20314;-62
2023/01/29 07:29:28;;;;;;;19.97;9.80;;;0.00;99.90;;;;;;4228240;28;20317;-63
2023/01/29 07:31:29;;;;;;;18.83;9.17;;;0.00;99.90;;;;;;4228728;28;20329;-63
2023/01/29 07:33:31;;;;;;;23.57;9.53;;;0.00;99.90;;;;;;4228163;28;20321;-65
2023/01/29 07:35:37;;;;;;;19.77;9.80;;;0.00;99.90;;;;;;4229182;28;20309;-61
2023/01/29 07:37:38;;;;;;;22.07;10.13;;;-0.10;99.90;;;;;;4228294;28;20252;-70
2023/01/29 07:39:40;;;;;;;19.03;9.60;;;-0.10;99.90;;;;;;4229232;28;20272;-61
2023/01/29 07:41:41;;;;;;;19.33;9.30;;;-0.10;99.90;;;;;;4227416;28;20333;-61
2023/01/29 07:43:42;;;;;;;26.57;11.50;;;-0.10;99.90;;;;;;4229179;28;20313;-65
2023/01/29 07:45:43;;;;;;;18.87;9.60;;;-0.10;99.90;;;;;;4228218;28;20288;-64
2023/01/29 07:47:50;;;;;;;21.77;9.50;;;0.00;99.90;;;;;;4229070;28;20324;-62
2023/01/29 07:49:51;;;;;;;17.53;8.47;;;0.00;99.90;;;;;;4227143;28;20264;-61
2023/01/29 07:51:52;;;;;;;21.27;9.77;;;-0.10;99.90;;;;;;4228851;28;20321;-62
2023/01/29 07:53:54;;;;;;;24.70;9.50;;;0.00;99.90;;;;;;4227334;28;20256;-69
2023/01/29 07:55:55;;;;;;;21.93;10.50;;;0.00;99.90;;;;;;4228421;28;20260;-70
2023/01/29 07:57:58;;;;;;;19.00;9.17;;;0.00;99.90;;;;;;4227419;28;20264;-68
2023/01/29 08:00:00;;;;;;;22.37;9.37;;;-0.10;99.90;;;;;;4227957;28;20828;-68
2023/01/29 08:02:01;;;;;;;21.20;10.40;;;0.00;99.90;;;;;;4228429;28;20317;-61
2023/01/29 08:04:02;;;;;;;23.23;10.43;;;0.00;99.90;;;;;;4227511;28;20260;-63
2023/01/29 08:06:03;;;;;;;29.90;13.53;;;0.10;99.90;;;;;;4228022;28;20284;-64
2023/01/29 08:08:05;;;;;;;27.17;12.97;;;0.10;99.90;;;;;;4227487;28;20276;-66
2023/01/29 08:10:06;;;;;;;30.97;15.43;;;0.10;99.90;;;;;;4209697;28;20277;-61
2023/01/29 08:12:07;;;;;;;26.67;13.30;;;0.10;99.90;;;;;;4227438;28;21134;-63
2023/01/29 08:14:09;;;;;;;25.23;11.67;;;0.10;99.90;;;;;;4228712;28;20367;-62
2023/01/29 08:16:10;;;;;;;30.97;10.97;;;0.10;99.90;;;;;;4227818;28;20280;-64
2023/01/29 08:18:12;;;;;;;28.73;13.70;;;0.10;99.90;;;;;;4228576;28;20271;-62
2023/01/29 08:20:13;;;;;;;25.67;13.20;;;0.10;99.90;;;;;;4226428;28;20312;-62
2023/01/29 08:22:15;;;;;;;24.80;11.97;;;0.20;99.90;;;;;;4228363;28;20301;-63
2023/01/29 08:24:16;;;;;;;28.60;13.27;;;0.20;99.90;;;;;;4227538;28;20248;-64
2023/01/29 08:26:17;;;;;;;26.60;11.83;;;0.30;99.90;;;;;;4228112;28;20303;-64
2023/01/29 08:28:19;;;;;;;25.03;11.83;;;0.40;99.90;;;;;;4227968;28;20719;-63
2023/01/29 08:30:20;;;;;;;21.57;9.90;;;0.40;99.90;;;;;;4227664;28;20789;-62
2023/01/29 08:32:21;;;;;;;24.80;10.40;;;0.40;99.90;;;;;;4227421;28;20272;-64
2023/01/29 08:34:22;;;;;;;22.87;10.63;;;0.30;99.90;;;;;;4226314;28;20813;-64
2023/01/29 08:36:23;;;;;;;22.43;9.80;;;0.30;99.90;;;;;;4228295;28;20264;-62
2023/01/29 08:38:25;;;;;;;23.63;10.07;;;0.30;99.90;;;;;;4227198;28;20739;-62
2023/01/29 08:40:30;;;;;;;36.77;9.93;;;0.30;99.90;;;;;;4228085;28;20781;-64
2023/01/29 08:42:31;;;;;;;26.57;11.30;;;0.30;99.90;;;;;;4227134;28;20260;-62
2023/01/29 08:44:32;;;;;;;21.77;9.63;;;0.30;99.90;;;;;;4228032;28;20268;-65
2023/01/29 08:46:33;;;;;;;25.57;9.50;;;0.30;99.90;;;;;;4226469;28;20780;-62
2023/01/29 08:48:35;;;;;;;25.13;11.03;;;0.30;99.90;;;;;;4228098;28;20321;-62
2023/01/29 08:50:36;;;;;;;19.50;11.27;;;0.30;99.90;;;;;;4226960;28;20306;-62
2023/01/29 08:52:37;;;;;;;19.63;9.67;;;0.40;99.90;;;;;;4228212;28;20264;-64
2023/01/29 08:54:39;;;;;;;21.20;9.93;;;0.40;99.90;;;;;;4226156;28;20279;-64
2023/01/29 08:56:40;;;;;;;18.43;8.67;;;0.50;99.90;;;;;;4227571;28;20252;-62
2023/01/29 08:58:41;;;;;;;19.23;10.17;;;0.50;99.90;;;;;;4227332;28;20789;-62
2023/01/29 09:00:43;;;;;;;26.40;10.03;;;0.50;99.90;;;;;;4227441;28;20329;-64
2023/01/29 09:02:44;;;;;;;24.23;9.40;;;0.50;99.90;;;;;;4226957;28;20305;-62
2023/01/29 09:04:45;;;;;;;21.73;10.97;;;0.60;99.90;;;;;;4226796;28;20321;-64
2023/01/29 09:06:46;;;;;;;20.90;10.63;;;0.60;99.90;;;;;;4227684;28;20764;-63
2023/01/29 09:08:48;;;;;;;24.70;11.23;;;0.60;99.90;;;;;;4226833;28;20268;-62
2023/01/29 09:10:49;;;;;;;24.73;9.93;;;0.70;99.90;;;;;;4227748;28;20629;-64
2023/01/29 09:12:50;;;;;;;24.30;11.80;;;0.60;99.90;;;;;;4226576;28;20284;-61
2023/01/29 09:14:51;;;;;;;27.17;12.50;;;0.70;99.90;;;;;;4227865;28;20260;-62
2023/01/29 09:16:53;;;;;;;27.77;11.93;;;0.60;99.90;;;;;;4208975;28;20687;-62
2023/01/29 09:18:54;;;;;;;23.10;11.27;;;0.70;99.90;;;;;;4230653;28;20728;-64
2023/01/29 09:20:56;;;;;;;24.40;9.27;;;0.70;99.90;;;;;;4230238;28;20736;-62
2023/01/29 09:22:58;;;;;;;16.17;8.33;;;0.70;99.90;;;;;;4231449;28;20275;-63
2023/01/29 09:24:59;;;;;;;16.13;8.63;;;0.70;99.90;;;;;;4229358;28;20260;-62
2023/01/29 09:27:00;;;;;;;18.47;8.33;;;0.60;99.90;;;;;;4230910;28;20759;-63
2023/01/29 09:29:01;;;;;;;20.50;8.93;;;0.60;99.90;;;;;;4230383;28;20294;-63
2023/01/29 09:31:03;;;;;;;23.00;10.10;;;0.50;99.90;;;;;;4230553;28;20256;-62
2023/01/29 09:33:05;;;;;;;18.10;9.17;;;0.50;99.90;;;;;;4230079;28;20609;-62
2023/01/29 09:35:07;;;;;;;19.07;8.77;;;0.50;99.90;;;;;;4229965;28;20260;-62
2023/01/29 09:37:09;;;;;;;17.07;8.53;;;0.50;99.90;;;;;;4231025;28;20363;-62
2023/01/29 09:39:10;;;;;;;26.20;9.90;;;0.40;99.90;;;;;;4229985;28;20593;-62
2023/01/29 09:41:20;;;;;;;45.50;19.57;;;0.40;99.90;;;;;;4231060;28;20313;-62
2023/01/29 09:43:31;;;;;;;44.45;20.05;;;0.40;99.90;;;;;;4229761;28;20260;-64
2023/01/29 09:45:32;;;;;;;;;;;0.50;99.90;;;;;;4231683;28;20080;-62
2023/01/29 09:47:34;;;;;;;;;;;0.50;99.90;;;;;;4229891;28;19926;-66
2023/01/29 09:49:41;;;;;;;18.43;8.87;;;0.50;99.90;;;;;;4212431;28;20218;-62
2023/01/29 09:51:51;;;;;;;31.73;13.73;;;0.50;99.90;;;;;;4229533;28;20268;-63
2023/01/29 09:54:12;;;;;;;15.85;8.48;;;0.60;99.90;;;;;;4230721;28;20276;-62
2023/01/29 09:56:18;;;;;;;15.10;8.05;;;0.70;99.90;;;;;;4229372;28;20084;-61
2023/01/29 09:58:41;;;;;;;16.47;8.60;;;0.70;99.90;;;;;;4230749;28;20031;-63
2023/01/29 10:01:04;;;;;;;19.57;8.83;;;0.70;99.90;;;;;;4229582;28;20731;-62
2023/01/29 10:03:21;;;;;;;21.00;8.67;;;0.80;99.90;;;;;;4230307;28;20272;-64
2023/01/29 10:05:50;;;;;;;17.10;8.53;;;0.90;99.90;;;;;;4228397;28;20357;-61
2023/01/29 10:08:05;;;;;;;16.80;8.77;;;0.90;99.90;;;;;;4186864;28;20314;-62
2023/01/29 10:10:24;;;;;;;12.90;7.70;;;0.90;99.90;;;;;;4230063;28;20876;-64
2023/01/29 10:12:31;;;;;;;15.47;7.97;;;0.90;99.90;;;;;;4229243;28;20620;-64
2023/01/29 10:15:00;;;;;;;18.30;7.97;;;0.90;99.90;;;;;;4229947;28;20264;-62
2023/01/29 10:17:40;;;;;;;17.73;8.37;;;1.00;99.90;;;;;;4210896;28;20768;-62
2023/01/29 10:20:13;;;;;;;17.90;8.15;;;1.00;99.90;;;;;;4218900;28;20333;-62
2023/01/29 10:22:42;;;;;;;20.73;9.80;;;1.00;99.90;;;;;;4228161;28;20080;-62
2023/01/29 10:24:59;;;;;;;19.27;8.67;;;1.00;99.90;;;;;;4229919;28;20268;-61
2023/01/29 10:27:02;;;;;;;17.97;7.60;;;1.10;99.90;;;;;;4228268;28;20296;-62
2023/01/29 10:29:06;;;;;;;16.70;7.90;;;1.00;99.90;;;;;;4228914;28;20260;-61
2023/01/29 10:31:19;;;;;;;15.77;7.97;;;1.00;99.90;;;;;;4227650;28;20260;-61
2023/01/29 10:33:44;;;;;;;16.17;8.10;;;0.90;99.90;;;;;;4229832;28;20260;-62
2023/01/29 10:35:51;;;;;;;19.43;8.87;;;0.80;99.90;;;;;;4229212;28;20662;-63
2023/01/29 10:37:53;;;;;;;22.07;10.20;;;0.80;99.90;;;;;;4229805;28;20310;-62
2023/01/29 10:39:54;;;;;;;23.30;8.80;;;0.90;99.90;;;;;;4229002;28;20627;-65
2023/01/29 10:42:07;;;;;;;19.40;9.27;;;0.80;99.90;;;;;;4229960;28;20272;-72
2023/01/29 10:44:33;;;;;;;20.70;9.80;;;0.80;99.90;;;;;;4227901;28;20252;-62
2023/01/29 10:46:52;;;;;;;18.87;9.00;;;0.80;99.90;;;;;;4228779;28;20801;-65
2023/01/29 10:49:21;;;;;;;20.30;8.50;;;0.70;99.90;;;;;;4228337;28;20277;-63
2023/01/29 10:52:10;;;;;;;20.40;9.17;;;0.80;99.90;;;;;;4228797;28;20297;-64
2023/01/29 10:54:13;;;;;;;22.33;9.30;;;0.80;99.90;;;;;;4228923;28;20272;-64
2023/01/29 10:56:31;;;;;;;21.70;9.37;;;0.80;99.90;;;;;;4227897;28;20305;-62
2023/01/29 10:58:42;;;;;;;20.73;9.63;;;0.80;99.90;;;;;;4229775;28;20317;-62
2023/01/29 11:00:45;;;;;;;22.93;10.83;;;0.80;99.90;;;;;;4228520;28;20280;-62
2023/01/29 11:02:48;;;;;;;28.47;12.83;;;0.90;99.90;;;;;;4229741;28;20317;-63
2023/01/29 11:04:50;;;;;;;34.47;13.23;;;0.90;99.90;;;;;;4227549;28;20280;-61
2023/01/29 11:06:51;;;;;;;25.53;11.17;;;0.80;99.90;;;;;;4210803;28;20297;-66
2023/01/29 11:09:18;;;;;;;17.83;8.83;;;0.80;99.90;;;;;;4228387;28;20321;-63
2023/01/29 11:11:23;;;;;;;25.10;12.10;;;0.70;99.90;;;;;;4229246;28;20264;-64
2023/01/29 11:13:31;;;;;;;25.50;11.43;;;0.70;99.90;;;;;;4227340;28;20605;-62
2023/01/29 11:15:33;;;;;;;23.23;11.37;;;0.70;99.90;;;;;;4229697;28;20313;-62
2023/01/29 11:17:34;;;;;;;27.50;12.63;;;0.70;99.90;;;;;;4228614;28;20276;-62